createdAt,value
2022-12-15T00:00:34.168Z,34.03
2022-12-15T00:03:25.652Z,33.13
2022-12-15T00:06:11.985Z,33.55
2022-12-15T00:08:59.545Z,35.28
2022-12-15T00:11:45.776Z,32.03
2022-12-15T00:14:31.610Z,32.53
2022-12-15T00:17:17.618Z,35.50
2022-12-15T00:20:03.728Z,32.97
2022-12-15T00:22:49.726Z,34.72
2022-12-15T00:25:36.803Z,38.00
2022-12-15T00:28:23.228Z,36.30
2022-12-15T00:31:09.347Z,32.90
2022-12-15T00:33:55.362Z,30.95
2022-12-15T00:36:41.546Z,33.92
2022-12-15T00:39:09.838Z,30.42
2022-12-15T00:41:39.649Z,34.08
2022-12-15T00:44:08.049Z,32.92
2022-12-15T00:46:54.095Z,34.72
2022-12-15T00:49:41.047Z,39.10
2022-12-15T00:52:27.962Z,29.75
2022-12-15T00:55:14.079Z,35.55
2022-12-15T00:58:02.102Z,30.05
2022-12-15T01:00:48.383Z,36.55
2022-12-15T01:03:37.820Z,32.70
2022-12-15T01:06:25.170Z,37.88
2022-12-15T01:09:11.190Z,38.42
2022-12-15T01:11:57.437Z,34.33
2022-12-15T01:14:45.525Z,33.55
2022-12-15T01:17:31.938Z,30.83
2022-12-15T01:20:18.256Z,33.33
2022-12-15T01:22:47.444Z,32.30
2022-12-15T01:25:17.381Z,32.13
2022-12-15T01:27:46.303Z,34.80
2022-12-15T01:30:19.917Z,29.42
2022-12-15T01:32:48.373Z,32.90
2022-12-15T01:35:17.669Z,29.33
2022-12-15T01:37:46.741Z,32.80
2022-12-15T01:40:40.914Z,31.50
2022-12-15T01:43:15.374Z,29.45
2022-12-15T01:45:59.833Z,32.10
2022-12-15T01:48:44.080Z,24.38
2022-12-15T01:51:18.478Z,31.85
2022-12-15T01:53:55.595Z,30.05
2022-12-15T01:56:26.648Z,39.88
2022-12-15T01:58:57.954Z,34.38
2022-12-15T02:01:27.816Z,32.63
2022-12-15T02:03:56.918Z,31.20
2022-12-15T02:06:27.484Z,33.38
2022-12-15T02:08:58.468Z,39.42
2022-12-15T02:11:58.372Z,31.23
2022-12-15T02:14:41.702Z,32.42
2022-12-15T02:17:24.063Z,33.58
2022-12-15T02:20:36.820Z,30.23
2022-12-15T02:24:00.965Z,32.90
2022-12-15T02:27:14.511Z,28.65
2022-12-15T02:30:32.283Z,29.23
2022-12-15T02:33:12.416Z,29.17
2022-12-15T02:35:56.873Z,34.10
2022-12-15T02:38:34.628Z,30.75
2022-12-15T02:41:06.069Z,30.05
2022-12-15T02:43:38.906Z,30.90
2022-12-15T02:46:21.706Z,34.22
2022-12-15T02:49:02.032Z,33.75
2022-12-15T02:51:44.399Z,31.33
2022-12-15T02:54:36.522Z,30.20
2022-12-15T02:57:13.166Z,31.65
2022-12-15T02:59:47.229Z,34.97
2022-12-15T03:02:17.290Z,29.10
2022-12-15T03:04:46.129Z,33.30
2022-12-15T03:07:15.907Z,25.55
2022-12-15T03:09:44.322Z,33.55
2022-12-15T03:12:12.747Z,29.67
2022-12-15T03:14:41.133Z,30.83
2022-12-15T03:17:09.470Z,31.95
2022-12-15T03:19:39.172Z,36.63
2022-12-15T03:22:07.883Z,29.50
2022-12-15T03:24:36.263Z,28.83
2022-12-15T03:27:04.954Z,29.48
2022-12-15T03:29:33.592Z,29.33
2022-12-15T03:32:02.247Z,30.30
2022-12-15T03:34:30.561Z,30.88
2022-12-15T03:37:01.095Z,32.55
2022-12-15T03:39:29.363Z,33.30
2022-12-15T03:41:57.747Z,32.47
2022-12-15T03:44:26.141Z,34.35
2022-12-15T03:47:01.365Z,28.70
2022-12-15T03:49:31.434Z,29.65
2022-12-15T03:52:01.261Z,29.08
2022-12-15T03:54:29.641Z,27.75
2022-12-15T03:56:57.983Z,35.13
2022-12-15T03:59:26.288Z,26.30
2022-12-15T04:01:54.715Z,34.90
2022-12-15T04:04:23.248Z,35.10
2022-12-15T04:06:51.680Z,32.92
2022-12-15T04:09:21.391Z,29.45
2022-12-15T04:11:49.730Z,32.85
2022-12-15T04:14:18.123Z,30.75
2022-12-15T04:16:46.500Z,29.90
2022-12-15T04:19:34.504Z,27.83
2022-12-15T04:22:04.711Z,28.88
2022-12-15T04:24:51.807Z,32.30
2022-12-15T04:27:37.527Z,27.73
2022-12-15T04:30:24.819Z,25.48
2022-12-15T04:33:10.679Z,25.67
2022-12-15T04:35:56.638Z,33.67
2022-12-15T04:38:50.069Z,28.35
2022-12-15T04:41:39.755Z,29.60
2022-12-15T04:44:26.251Z,29.00
2022-12-15T04:47:12.597Z,30.20
2022-12-15T04:49:58.417Z,33.88
2022-12-15T04:52:44.595Z,30.90
2022-12-15T04:55:30.171Z,29.50
2022-12-15T04:58:17.257Z,30.95
2022-12-15T05:01:03.222Z,29.98
2022-12-15T05:03:49.167Z,28.60
2022-12-15T05:06:35.022Z,29.83
2022-12-15T05:09:21.457Z,33.47
2022-12-15T05:12:07.318Z,32.63
2022-12-15T05:14:54.371Z,31.80
2022-12-15T05:17:41.794Z,35.97
2022-12-15T05:20:28.908Z,40.38
2022-12-15T05:23:15.477Z,31.27
2022-12-15T05:26:01.781Z,37.83
2022-12-15T05:28:48.267Z,33.45
2022-12-15T05:31:35.422Z,37.28
2022-12-15T05:34:05.745Z,38.55
2022-12-15T05:36:37.204Z,38.30
2022-12-15T05:39:06.202Z,36.28
2022-12-15T05:41:34.537Z,38.45
2022-12-15T05:44:02.960Z,36.28
2022-12-15T05:46:32.725Z,41.58
2022-12-15T05:49:03.908Z,41.78
2022-12-15T05:51:32.410Z,39.63
2022-12-15T05:54:00.946Z,36.65
2022-12-15T05:56:29.961Z,43.17
2022-12-15T05:58:58.520Z,41.95
2022-12-15T06:01:28.029Z,35.80
2022-12-15T06:03:58.216Z,33.55
2022-12-15T06:06:27.206Z,37.28
2022-12-15T06:08:55.846Z,40.10
2022-12-15T06:11:24.445Z,32.00
2022-12-15T06:13:52.855Z,38.47
2022-12-15T06:16:24.344Z,35.38
2022-12-15T06:18:59.900Z,36.72
2022-12-15T06:21:31.599Z,36.17
2022-12-15T06:24:00.759Z,35.70
2022-12-15T06:26:32.012Z,35.35
2022-12-15T06:29:03.694Z,33.58
2022-12-15T06:31:34.061Z,32.92
2022-12-15T06:34:06.362Z,28.92
2022-12-15T06:36:34.750Z,30.45
2022-12-15T06:39:05.421Z,36.75
2022-12-15T06:41:34.413Z,34.50
2022-12-15T06:44:03.438Z,39.00
2022-12-15T06:46:34.995Z,37.30
2022-12-15T06:49:05.006Z,33.35
2022-12-15T06:51:33.358Z,34.92
2022-12-15T06:54:01.823Z,26.80
2022-12-15T06:56:34.465Z,43.03
2022-12-15T06:59:05.311Z,38.47
2022-12-15T07:01:35.710Z,36.58
2022-12-15T07:04:06.283Z,36.50
2022-12-15T07:06:37.446Z,35.25
2022-12-15T07:09:10.499Z,40.15
2022-12-15T07:11:39.027Z,40.80
2022-12-15T07:14:07.513Z,40.55
2022-12-15T07:16:35.935Z,36.38
2022-12-15T07:19:05.821Z,39.15
2022-12-15T07:21:34.204Z,42.72
2022-12-15T07:24:03.083Z,38.13
2022-12-15T07:26:31.677Z,33.88
2022-12-15T07:29:00.163Z,41.05
2022-12-15T07:31:28.878Z,43.78
2022-12-15T07:33:58.939Z,49.72
2022-12-15T07:36:28.825Z,40.80
2022-12-15T07:39:01.302Z,42.75
2022-12-15T07:41:30.296Z,41.80
2022-12-15T07:43:59.295Z,46.05
2022-12-15T07:46:29.109Z,35.85
2022-12-15T07:48:57.708Z,43.65
2022-12-15T07:51:26.168Z,44.05
2022-12-15T07:53:56.057Z,41.42
2022-12-15T07:56:24.507Z,41.13
2022-12-15T07:58:53.068Z,40.83
2022-12-15T08:01:23.650Z,41.47
2022-12-15T08:03:55.569Z,44.17
2022-12-15T08:06:26.608Z,43.30
2022-12-15T08:09:00.076Z,36.53
2022-12-15T08:11:34.502Z,38.85
2022-12-15T08:14:04.530Z,39.95
2022-12-15T08:16:36.562Z,38.55
2022-12-15T08:19:06.429Z,39.45
2022-12-15T08:21:35.590Z,36.88
2022-12-15T08:24:06.139Z,37.13
2022-12-15T08:26:35.204Z,28.20
2022-12-15T08:29:49.058Z,36.55
2022-12-15T08:31:53.795Z,34.13
2022-12-15T08:34:22.493Z,37.92
2022-12-15T08:36:51.138Z,34.33
2022-12-15T08:39:21.456Z,38.90
2022-12-15T08:41:51.210Z,39.47
2022-12-15T08:44:19.618Z,34.53
2022-12-15T08:46:48.057Z,36.88
2022-12-15T08:49:21.467Z,40.72
2022-12-15T08:51:51.467Z,36.97
2022-12-15T08:54:22.071Z,39.50
2022-12-15T08:56:50.866Z,39.75
2022-12-15T08:59:19.956Z,47.67
2022-12-15T09:01:48.666Z,43.47
2022-12-15T09:04:18.603Z,41.47
2022-12-15T09:06:50.326Z,40.20
2022-12-15T09:09:21.515Z,43.50
2022-12-15T09:11:50.438Z,39.85
2022-12-15T09:14:22.941Z,38.92
2022-12-15T09:16:57.681Z,42.55
2022-12-15T09:19:28.068Z,41.15
2022-12-15T09:21:56.746Z,40.88
2022-12-15T09:24:34.751Z,42.88
2022-12-15T09:27:04.796Z,44.10
2022-12-15T09:29:33.855Z,44.42
2022-12-15T09:32:06.570Z,41.10
2022-12-15T09:34:40.386Z,47.20
2022-12-15T09:37:09.146Z,42.90
2022-12-15T09:39:39.639Z,41.55
2022-12-15T09:42:23.821Z,43.83
2022-12-15T09:45:01.104Z,48.00
2022-12-15T09:47:42.017Z,45.15
2022-12-15T09:50:14.018Z,44.35
2022-12-15T09:52:50.668Z,44.28
2022-12-15T09:55:24.853Z,38.80
2022-12-15T09:57:55.789Z,45.70
2022-12-15T10:00:26.791Z,38.88
2022-12-15T10:03:39.359Z,38.95
2022-12-15T10:06:17.059Z,36.92
2022-12-15T10:09:05.113Z,36.65
2022-12-15T10:11:48.567Z,36.63
2022-12-15T10:14:33.006Z,43.92
2022-12-15T10:17:09.164Z,42.63
2022-12-15T10:19:45.521Z,44.53
2022-12-15T10:22:24.136Z,39.60
2022-12-15T10:25:10.212Z,41.05
2022-12-15T10:28:17.979Z,37.90
2022-12-15T10:30:53.760Z,38.33
2022-12-15T10:33:26.531Z,44.35
2022-12-15T10:35:55.957Z,40.65
2022-12-15T10:38:31.265Z,41.95
2022-12-15T10:41:02.868Z,40.90
2022-12-15T10:43:37.169Z,41.75
2022-12-15T10:46:15.045Z,40.60
2022-12-15T10:48:48.617Z,43.55
2022-12-15T10:51:22.233Z,45.92
2022-12-15T10:53:53.273Z,52.28
2022-12-15T10:56:32.375Z,43.72
2022-12-15T10:59:07.584Z,43.47
2022-12-15T11:01:36.497Z,43.63
2022-12-15T11:04:05.277Z,43.15
2022-12-15T11:06:36.929Z,47.97
2022-12-15T11:09:23.838Z,36.63
2022-12-15T11:12:11.924Z,44.38
2022-12-15T11:14:48.154Z,49.13
2022-12-15T11:17:19.252Z,59.03
2022-12-15T11:20:01.667Z,43.45
2022-12-15T11:22:41.949Z,45.13
2022-12-15T11:25:22.058Z,43.55
2022-12-15T11:27:53.044Z,41.50
2022-12-15T11:30:28.360Z,41.83
2022-12-15T11:33:00.321Z,45.72
2022-12-15T11:35:39.315Z,40.83
2022-12-15T11:38:20.997Z,45.42
2022-12-15T11:40:51.761Z,38.80
2022-12-15T11:43:50.450Z,42.92
2022-12-15T11:46:24.354Z,45.10
2022-12-15T11:49:21.742Z,50.55
2022-12-15T11:51:56.396Z,51.22
2022-12-15T11:54:31.393Z,44.70
2022-12-15T11:57:12.943Z,42.47
2022-12-15T12:00:03.729Z,49.75
2022-12-15T12:03:09.336Z,40.45
2022-12-15T12:06:01.309Z,40.03
2022-12-15T12:08:47.384Z,45.28
2022-12-15T12:11:26.341Z,45.92
2022-12-15T12:14:15.826Z,44.80
2022-12-15T12:16:54.612Z,46.10
2022-12-15T12:19:29.295Z,44.78
2022-12-15T12:22:06.937Z,45.08
2022-12-15T12:24:41.658Z,44.40
2022-12-15T12:27:18.194Z,47.97
2022-12-15T12:29:49.914Z,45.30
2022-12-15T12:32:30.275Z,47.15
2022-12-15T12:35:31.090Z,46.42
2022-12-15T12:38:03.996Z,40.40
2022-12-15T12:40:47.955Z,39.75
2022-12-15T12:43:33.303Z,41.13
2022-12-15T12:46:08.880Z,46.28
2022-12-15T12:48:41.764Z,43.70
2022-12-15T12:51:24.854Z,49.83
2022-12-15T12:53:53.641Z,47.33
2022-12-15T12:56:43.914Z,43.78
2022-12-15T12:59:39.212Z,43.17
2022-12-15T13:02:55.427Z,45.97
2022-12-15T13:05:31.460Z,43.15
2022-12-15T13:08:51.351Z,43.15
2022-12-15T13:12:14.843Z,47.08
2022-12-15T13:14:51.858Z,44.85
2022-12-15T13:17:33.179Z,41.47
2022-12-15T13:20:25.883Z,42.05
2022-12-15T13:22:57.028Z,43.72
2022-12-15T13:25:40.882Z,45.95
2022-12-15T13:28:39.376Z,41.40
2022-12-15T13:31:28.650Z,43.00
2022-12-15T13:34:23.179Z,42.75
2022-12-15T13:37:01.256Z,44.63
2022-12-15T13:39:58.002Z,43.53
2022-12-15T13:45:52.108Z,38.13
2022-12-15T13:48:31.858Z,46.65
2022-12-15T13:51:23.344Z,40.47
2022-12-15T13:53:59.689Z,46.63
2022-12-15T13:56:54.135Z,41.30
2022-12-15T13:59:32.684Z,40.53
2022-12-15T14:02:02.617Z,38.00
2022-12-15T14:04:31.163Z,38.17
2022-12-15T14:07:03.060Z,40.45
2022-12-15T14:09:35.517Z,40.78
2022-12-15T14:12:06.904Z,38.85
2022-12-15T14:14:38.574Z,39.90
2022-12-15T14:17:11.813Z,42.67
2022-12-15T14:19:42.678Z,41.67
2022-12-15T14:22:29.073Z,41.10
2022-12-15T14:25:04.734Z,46.40
2022-12-15T14:27:34.871Z,36.88
2022-12-15T14:30:25.529Z,38.28
2022-12-15T14:33:00.211Z,42.45
2022-12-15T14:35:33.673Z,39.67
2022-12-15T14:38:06.243Z,36.83
2022-12-15T14:40:37.507Z,46.03
2022-12-15T14:43:07.411Z,42.00
2022-12-15T14:45:35.985Z,51.58
2022-12-15T14:48:40.084Z,46.15
2022-12-15T14:51:01.637Z,43.08
2022-12-15T14:53:35.712Z,46.80
2022-12-15T14:56:30.295Z,49.42
2022-12-15T14:59:04.041Z,44.08
2022-12-15T15:01:40.905Z,41.15
2022-12-15T15:03:11.859Z,47.88
2022-12-15T15:04:29.150Z,37.92
2022-12-15T15:07:00.466Z,43.70
2022-12-15T15:09:32.423Z,38.20
2022-12-15T15:12:05.672Z,34.30
2022-12-15T15:14:39.213Z,40.30
2022-12-15T15:17:17.564Z,45.28
2022-12-15T15:19:52.350Z,36.47
2022-12-15T15:22:40.878Z,50.00
2022-12-15T15:25:40.643Z,43.67
2022-12-15T15:28:23.146Z,43.95
2022-12-15T15:30:56.756Z,44.72
2022-12-15T15:33:26.876Z,42.15
2022-12-15T15:35:58.990Z,46.17
2022-12-15T15:38:33.072Z,45.65
2022-12-15T15:41:03.982Z,43.15
2022-12-15T15:43:32.403Z,41.08
2022-12-15T15:46:05.804Z,42.65
2022-12-15T15:48:38.024Z,48.78
2022-12-15T15:51:08.365Z,41.00
2022-12-15T15:53:37.313Z,45.38
2022-12-15T15:56:10.128Z,43.03
2022-12-15T15:58:38.881Z,47.42
2022-12-15T16:01:12.913Z,44.42
2022-12-15T16:03:42.697Z,43.60
2022-12-15T16:06:18.843Z,46.85
2022-12-15T16:08:50.627Z,45.00
2022-12-15T16:11:19.170Z,49.63
2022-12-15T16:13:47.556Z,44.45
2022-12-15T16:16:21.632Z,42.97
2022-12-15T16:18:50.283Z,42.95
2022-12-15T16:21:24.500Z,40.38
2022-12-15T16:23:53.944Z,37.33
2022-12-15T16:26:29.028Z,41.78
2022-12-15T16:28:57.574Z,42.38
2022-12-15T16:31:38.990Z,44.45
2022-12-15T16:34:09.584Z,42.40
2022-12-15T16:36:39.737Z,43.70
2022-12-15T16:39:25.397Z,41.30
2022-12-15T16:41:55.684Z,45.05
2022-12-15T16:44:24.771Z,44.33
2022-12-15T16:46:53.624Z,40.55
2022-12-15T16:49:22.229Z,42.08
2022-12-15T16:51:54.080Z,36.22
2022-12-15T16:54:27.141Z,41.90
2022-12-15T16:56:57.868Z,33.85
2022-12-15T16:59:35.952Z,38.00
2022-12-15T17:02:23.174Z,39.88
2022-12-15T17:04:51.908Z,42.95
2022-12-15T17:07:22.049Z,41.22
2022-12-15T17:09:51.990Z,44.03
2022-12-15T17:12:20.568Z,39.60
2022-12-15T17:14:49.048Z,39.30
2022-12-15T17:17:20.430Z,45.25
2022-12-15T17:22:39.566Z,40.95
2022-12-15T17:25:23.719Z,37.67
2022-12-15T17:28:13.266Z,39.90
2022-12-15T17:30:41.838Z,37.55
2022-12-15T17:33:22.765Z,36.10
2022-12-15T17:35:54.616Z,36.80
2022-12-15T17:38:25.289Z,38.80
2022-12-15T17:40:54.655Z,39.20
2022-12-15T17:43:28.186Z,35.30
2022-12-15T17:46:00.474Z,36.28
2022-12-15T17:48:28.841Z,35.50
2022-12-15T17:50:57.274Z,34.30
2022-12-15T17:53:27.234Z,35.63
2022-12-15T17:55:55.992Z,36.60
2022-12-15T17:58:26.766Z,36.20
2022-12-15T18:00:57.286Z,36.55
2022-12-15T18:03:25.963Z,39.40
2022-12-15T18:05:54.804Z,38.95
2022-12-15T18:08:27.533Z,32.13
2022-12-15T18:10:58.618Z,37.45
2022-12-15T18:13:33.341Z,41.78
2022-12-15T18:16:03.803Z,39.35
2022-12-15T18:18:32.563Z,38.25
2022-12-15T18:21:06.801Z,37.60
2022-12-15T18:23:37.247Z,34.88
2022-12-15T18:26:05.801Z,40.17
2022-12-15T18:28:36.263Z,41.45
2022-12-15T18:31:16.759Z,39.00
2022-12-15T18:33:45.611Z,35.42
2022-12-15T18:36:14.523Z,40.03
2022-12-15T18:38:44.665Z,36.42
2022-12-15T18:41:16.673Z,37.35
2022-12-15T18:43:47.001Z,36.17
2022-12-15T18:46:17.361Z,36.15
2022-12-15T18:48:46.126Z,35.58
2022-12-15T18:51:18.616Z,33.15
2022-12-15T18:53:49.173Z,36.60
2022-12-15T18:56:21.611Z,34.90
2022-12-15T18:58:50.108Z,35.00
2022-12-15T19:01:18.711Z,38.75
2022-12-15T19:03:47.196Z,38.25
2022-12-15T19:06:26.206Z,36.63
2022-12-15T19:08:56.141Z,36.08
2022-12-15T19:11:31.045Z,35.05
2022-12-15T19:14:00.421Z,37.50
2022-12-15T19:16:50.602Z,30.73
2022-12-15T19:19:36.536Z,33.47
2022-12-15T19:22:30.092Z,31.95
2022-12-15T19:25:02.165Z,34.05
2022-12-15T19:27:30.768Z,32.92
2022-12-15T19:29:59.510Z,30.67
2022-12-15T19:32:27.976Z,31.20
2022-12-15T19:34:56.668Z,29.80
2022-12-15T19:37:28.658Z,33.38
2022-12-15T19:39:59.913Z,32.60
2022-12-15T19:42:32.293Z,32.58
2022-12-15T19:45:01.485Z,30.13
2022-12-15T19:47:30.232Z,29.35
2022-12-15T19:49:58.567Z,32.38
2022-12-15T19:52:28.444Z,29.10
2022-12-15T19:54:56.843Z,26.52
2022-12-15T19:57:26.657Z,30.00
2022-12-15T19:59:55.111Z,27.23
2022-12-15T20:02:23.713Z,23.23
2022-12-15T20:04:52.287Z,24.75
2022-12-15T20:07:28.220Z,24.55
2022-12-15T20:09:58.250Z,30.92
2022-12-15T20:12:28.409Z,23.45
2022-12-15T20:14:56.797Z,23.25
2022-12-15T20:17:25.527Z,20.45
2022-12-15T20:19:53.864Z,25.85
2022-12-15T20:22:22.230Z,22.20
2022-12-15T20:24:51.002Z,17.70
2022-12-15T20:27:20.771Z,22.77
2022-12-15T20:29:50.502Z,24.88
2022-12-15T20:32:21.734Z,23.10
2022-12-15T20:34:50.399Z,21.65
2022-12-15T20:37:22.474Z,24.25
2022-12-15T20:39:56.927Z,20.88
2022-12-15T20:42:26.247Z,22.70
2022-12-15T20:44:56.053Z,25.50
2022-12-15T20:47:27.605Z,23.38
2022-12-15T20:49:56.575Z,23.45
2022-12-15T20:52:27.700Z,22.77
2022-12-15T20:54:56.478Z,18.27
2022-12-15T20:57:24.846Z,22.25
2022-12-15T20:59:53.219Z,24.90
2022-12-15T21:02:25.042Z,19.35
2022-12-15T21:04:53.653Z,18.95
2022-12-15T21:07:22.045Z,23.38
2022-12-15T21:09:50.344Z,22.90
2022-12-15T21:12:21.049Z,21.60
2022-12-15T21:14:50.984Z,22.40
2022-12-15T21:17:25.643Z,22.48
2022-12-15T21:19:54.922Z,22.88
2022-12-15T21:22:26.181Z,24.58
2022-12-15T21:24:57.438Z,24.30
2022-12-15T21:27:26.026Z,27.90
2022-12-15T21:29:54.447Z,28.38
2022-12-15T21:32:24.769Z,21.85
2022-12-15T21:34:53.150Z,21.13
2022-12-15T21:37:28.619Z,27.05
2022-12-15T21:39:57.847Z,22.45
2022-12-15T21:42:26.693Z,26.65
2022-12-15T21:44:55.050Z,23.75
2022-12-15T21:47:47.440Z,22.52
2022-12-15T21:50:15.219Z,22.90
2022-12-15T21:52:43.996Z,23.17
2022-12-15T21:55:16.903Z,24.75
2022-12-15T21:57:46.034Z,21.35
2022-12-15T22:00:17.717Z,18.90
2022-12-15T22:02:49.274Z,23.77
2022-12-15T22:05:22.663Z,22.95
2022-12-15T22:07:51.858Z,27.52
2022-12-15T22:10:20.606Z,20.38
2022-12-15T22:12:58.965Z,22.30
2022-12-15T22:15:29.750Z,24.88
2022-12-15T22:17:59.604Z,23.05
2022-12-15T22:20:28.006Z,21.42
2022-12-15T22:22:56.561Z,20.98
2022-12-15T22:25:26.633Z,22.23
2022-12-15T22:27:59.577Z,22.90
2022-12-15T22:30:28.770Z,18.20
2022-12-15T22:32:57.186Z,22.38
2022-12-15T22:35:28.165Z,25.88
2022-12-15T22:37:56.616Z,24.70
2022-12-15T22:40:26.858Z,21.92
2022-12-15T22:42:59.227Z,25.33
2022-12-15T22:45:27.718Z,23.50
2022-12-15T22:47:56.458Z,28.80
2022-12-15T22:50:30.143Z,19.08
2022-12-15T22:52:58.611Z,18.80
2022-12-15T22:55:26.987Z,18.67
2022-12-15T22:57:59.704Z,23.45
2022-12-15T23:00:28.501Z,18.10
2022-12-15T23:02:59.656Z,18.48
2022-12-15T23:05:29.672Z,21.55
2022-12-15T23:07:58.202Z,20.20
2022-12-15T23:10:44.044Z,19.17
2022-12-15T23:13:12.509Z,21.30
2022-12-15T23:15:58.727Z,17.20
2022-12-15T23:18:27.284Z,18.45
2022-12-15T23:20:57.226Z,17.73
2022-12-15T23:23:28.059Z,16.45
2022-12-15T23:25:56.510Z,17.35
2022-12-15T23:28:24.964Z,18.70
2022-12-15T23:30:56.481Z,18.00
2022-12-15T23:33:24.922Z,17.70
2022-12-15T23:35:56.144Z,21.95
2022-12-15T23:38:25.355Z,15.55
2022-12-15T23:40:56.114Z,18.55
2022-12-15T23:43:27.096Z,17.35
2022-12-15T23:46:00.063Z,19.65
2022-12-15T23:48:33.062Z,12.77
2022-12-15T23:51:09.136Z,15.95
2022-12-15T23:53:38.337Z,18.92
2022-12-15T23:56:12.833Z,19.17
2022-12-15T23:58:43.206Z,20.35
